Time;durP1;ratioP1;P1;durP2;ratioP2;P2;SDS_P1;SDS_P2;PMS_P1;PMS_P2;Temp;Humidity;BMP_temperature;BMP_pressure;BME280_temperature;BME280_humidity;BME280_pressure;Samples;Min_cycle;Max_cycle;Signal;HPM_P1;HPM_P2
2021/05/13 00:01:06;;;;;;;1.57;1.20;;;16.10;56.30;;;;;;5094936;28;20319;-72
2021/05/13 00:03:33;;;;;;;2.13;1.13;;;16.00;56.40;;;;;;5087950;28;20243;-71
2021/05/13 00:06:01;;;;;;;1.40;1.30;;;16.00;56.50;;;;;;5096459;28;20220;-72
2021/05/13 00:08:28;;;;;;;6.27;1.07;;;15.90;56.60;;;;;;5103626;28;20208;-72
2021/05/13 00:11:01;;;;;;;1.40;1.20;;;15.80;56.80;;;;;;5094824;28;20287;-70
2021/05/13 00:13:29;;;;;;;4.20;1.30;;;15.80;57.00;;;;;;5092455;28;20232;-72
2021/05/13 00:15:55;;;;;;;1.60;1.27;;;15.70;57.20;;;;;;5096995;28;20990;-71
2021/05/13 00:18:22;;;;;;;2.63;1.20;;;15.70;57.30;;;;;;5094562;28;20673;-71
2021/05/13 00:20:49;;;;;;;3.73;1.43;;;15.70;57.30;;;;;;5092268;28;20208;-71
2021/05/13 00:23:16;;;;;;;2.10;0.90;;;15.60;57.50;;;;;;5106650;28;20315;-71
2021/05/13 00:25:43;;;;;;;1.73;1.47;;;15.50;57.50;;;;;;5091623;28;20238;-71
2021/05/13 00:28:10;;;;;;;1.37;1.10;;;15.50;57.80;;;;;;5094584;28;20259;-70
2021/05/13 00:30:36;;;;;;;2.60;1.30;;;15.50;58.00;;;;;;5091258;28;20215;-71
2021/05/13 00:33:03;;;;;;;4.40;1.07;;;15.40;58.00;;;;;;5098198;28;20224;-71
2021/05/13 00:35:29;;;;;;;2.63;1.27;;;15.30;58.10;;;;;;5100146;28;20217;-70
2021/05/13 00:37:56;;;;;;;3.10;0.80;;;15.20;58.30;;;;;;5092747;28;20292;-71
2021/05/13 00:40:23;;;;;;;1.40;0.90;;;15.20;58.50;;;;;;5095815;28;20214;-71
2021/05/13 00:42:51;;;;;;;2.20;1.30;;;15.10;58.60;;;;;;5099384;28;20200;-71
2021/05/13 00:45:19;;;;;;;1.50;1.17;;;15.10;58.80;;;;;;5095879;28;20299;-71
2021/05/13 00:48:01;;;;;;;1.40;1.00;;;15.10;59.00;;;;;;5093744;28;20204;-72
2021/05/13 00:50:28;;;;;;;2.23;1.00;;;15.00;59.10;;;;;;5097039;28;20208;-70
2021/05/13 00:52:55;;;;;;;7.03;1.20;;;15.00;59.80;;;;;;5098151;28;20228;-71
2021/05/13 00:55:23;;;;;;;0.90;0.90;;;15.00;59.20;;;;;;5107962;28;20210;-71
2021/05/13 00:57:53;;;;;;;2.07;1.30;;;14.90;59.50;;;;;;5111629;27;20222;-71
2021/05/13 01:00:35;;;;;;;2.30;1.20;;;14.90;59.60;;;;;;5102741;28;20976;-72
2021/05/13 01:03:03;;;;;;;1.90;1.20;;;14.90;59.80;;;;;;5091866;28;20193;-70
2021/05/13 01:05:31;;;;;;;2.90;1.30;;;14.90;59.80;;;;;;5100070;28;20208;-71
2021/05/13 01:07:58;;;;;;;1.87;1.10;;;14.90;60.70;;;;;;5098026;28;20230;-71
2021/05/13 01:10:26;;;;;;;2.37;1.20;;;14.80;60.10;;;;;;5094674;28;20592;-71
2021/05/13 01:12:53;;;;;;;1.17;0.93;;;14.80;60.20;;;;;;5099259;28;20604;-70
2021/05/13 01:15:24;;;;;;;7.27;1.60;;;14.80;60.20;;;;;;5111459;28;20652;-70
2021/05/13 01:17:59;;;;;;;1.03;0.90;;;14.70;60.20;;;;;;5096129;28;20200;-70
2021/05/13 01:20:27;;;;;;;2.93;0.97;;;14.70;60.30;;;;;;5096528;28;20196;-70
2021/05/13 01:22:54;;;;;;;1.80;1.03;;;14.70;60.50;;;;;;5097679;28;20200;-70
2021/05/13 01:25:20;;;;;;;2.40;1.23;;;14.70;60.70;;;;;;5094499;28;20211;-70
2021/05/13 01:27:47;;;;;;;1.93;1.23;;;14.60;60.60;;;;;;5106304;28;20233;-70
2021/05/13 01:30:16;;;;;;;2.67;1.17;;;14.60;60.60;;;;;;5098946;28;20682;-71
2021/05/13 01:32:43;;;;;;;2.23;1.10;;;14.50;60.90;;;;;;5096630;28;20308;-70
2021/05/13 01:35:10;;;;;;;2.70;1.37;;;14.50;61.00;;;;;;5102104;28;20298;-70
2021/05/13 01:37:37;;;;;;;2.93;1.00;;;14.40;61.10;;;;;;5104438;28;20208;-71
2021/05/13 01:40:05;;;;;;;1.50;1.10;;;14.40;61.20;;;;;;5106753;28;20568;-71
2021/05/13 01:42:32;;;;;;;1.33;1.23;;;14.30;61.30;;;;;;5104551;28;20209;-72
2021/05/13 01:44:59;;;;;;;1.43;1.07;;;14.30;61.70;;;;;;5107474;28;20256;-71
2021/05/13 01:47:26;;;;;;;1.77;1.13;;;14.30;61.70;;;;;;5093265;28;20197;-71
2021/05/13 01:49:52;;;;;;;1.80;1.17;;;14.30;61.70;;;;;;5091644;28;20242;-71
2021/05/13 01:52:19;;;;;;;1.33;1.10;;;14.30;61.90;;;;;;5092800;28;20597;-71
2021/05/13 01:54:45;;;;;;;3.53;1.60;;;14.20;62.10;;;;;;5096379;28;20228;-72
2021/05/13 01:57:12;;;;;;;1.50;1.13;;;14.20;62.20;;;;;;5094799;28;20228;-72
2021/05/13 01:59:39;;;;;;;1.53;1.33;;;14.20;62.50;;;;;;5099938;28;20205;-73
2021/05/13 02:02:07;;;;;;;1.40;1.07;;;14.20;62.60;;;;;;5093553;28;20311;-72
2021/05/13 02:04:33;;;;;;;1.90;1.10;;;14.20;62.60;;;;;;5094221;28;20196;-71
2021/05/13 02:06:59;;;;;;;1.33;1.10;;;14.20;62.80;;;;;;5094388;28;20673;-70
2021/05/13 02:09:26;;;;;;;3.73;2.07;;;14.20;63.60;;;;;;5097143;28;20201;-71
2021/05/13 02:11:52;;;;;;;2.63;1.20;;;14.20;62.90;;;;;;5094339;28;20721;-71
2021/05/13 02:14:19;;;;;;;1.47;1.20;;;14.20;62.90;;;;;;5102959;28;20315;-71
2021/05/13 02:16:46;;;;;;;3.20;1.20;;;14.20;63.20;;;;;;5108432;28;20287;-71
2021/05/13 02:19:12;;;;;;;2.03;1.10;;;14.20;63.30;;;;;;5095567;28;20307;-71
2021/05/13 02:21:39;;;;;;;1.47;1.20;;;14.10;63.30;;;;;;5104777;28;20645;-72
2021/05/13 02:24:06;;;;;;;4.27;1.00;;;14.10;63.30;;;;;;5092089;28;20308;-72
2021/05/13 02:26:32;;;;;;;2.70;1.20;;;14.10;63.30;;;;;;5093921;28;20747;-71
2021/05/13 02:28:58;;;;;;;1.73;1.40;;;14.00;63.50;;;;;;5103908;28;20768;-71
2021/05/13 02:31:26;;;;;;;1.90;1.00;;;14.00;63.80;;;;;;5096301;28;20749;-72
2021/05/13 02:33:52;;;;;;;1.90;1.27;;;14.00;64.10;;;;;;5093677;28;20681;-72
2021/05/13 02:36:19;;;;;;;1.03;0.93;;;14.00;64.50;;;;;;5093347;28;20219;-72
2021/05/13 02:38:45;;;;;;;1.77;1.20;;;13.80;64.70;;;;;;5095583;28;20332;-72
2021/05/13 02:41:12;;;;;;;1.23;1.10;;;13.80;64.80;;;;;;5098593;28;20243;-70
2021/05/13 02:43:38;;;;;;;1.00;0.90;;;13.70;65.00;;;;;;5095153;28;20236;-71
2021/05/13 02:46:04;;;;;;;2.70;1.10;;;13.70;65.20;;;;;;5094206;28;20291;-72
2021/05/13 02:48:32;;;;;;;1.43;1.33;;;13.60;65.20;;;;;;5098807;28;20225;-72
2021/05/13 02:50:58;;;;;;;3.60;1.30;;;13.50;65.40;;;;;;5101913;28;20204;-72
2021/05/13 02:53:25;;;;;;;2.77;1.30;;;13.50;65.70;;;;;;5089412;28;20229;-72
2021/05/13 02:55:51;;;;;;;1.10;1.00;;;13.40;65.70;;;;;;5100235;28;20203;-72
2021/05/13 02:58:17;;;;;;;1.50;1.20;;;13.30;66.60;;;;;;5099712;28;20208;-72
2021/05/13 03:03:25;;;;;;;1.63;1.37;;;13.30;66.20;;;;;;5101232;27;20571;-71
2021/05/13 03:05:54;;;;;;;3.13;1.40;;;13.30;66.40;;;;;;5093548;28;20349;-72
2021/05/13 03:08:20;;;;;;;2.57;1.47;;;13.20;66.10;;;;;;5098076;28;20991;-73
2021/05/13 03:10:47;;;;;;;1.67;1.20;;;13.30;66.60;;;;;;5096010;28;20591;-72
2021/05/13 03:13:21;;;;;;;1.43;1.10;;;13.30;66.50;;;;;;5096271;28;20226;-71
2021/05/13 03:15:49;;;;;;;3.20;1.30;;;13.30;66.30;;;;;;5107463;28;20606;-72
2021/05/13 03:18:15;;;;;;;2.23;1.20;;;13.30;66.00;;;;;;5104858;28;20213;-71
2021/05/13 03:20:47;;;;;;;1.83;1.63;;;13.40;66.00;;;;;;5093027;28;20208;-72
2021/05/13 03:23:14;;;;;;;2.73;2.10;;;13.50;66.00;;;;;;5091203;28;20208;-73
2021/05/13 03:25:41;;;;;;;1.97;1.40;;;13.50;65.80;;;;;;5105151;28;20254;-72
2021/05/13 03:28:08;;;;;;;4.40;1.30;;;13.60;65.60;;;;;;5104237;28;20694;-72
2021/05/13 03:30:37;;;;;;;2.03;1.20;;;13.60;65.50;;;;;;5113448;28;20653;-72
2021/05/13 03:33:04;;;;;;;4.03;1.33;;;13.70;65.30;;;;;;5103210;28;20253;-72
2021/05/13 03:35:31;;;;;;;3.20;1.10;;;13.70;65.10;;;;;;5099978;28;20299;-73
2021/05/13 03:37:58;;;;;;;2.17;1.03;;;13.80;65.00;;;;;;5106451;28;20320;-72
2021/05/13 03:40:28;;;;;;;1.30;1.20;;;13.90;64.70;;;;;;5099928;28;20211;-72
2021/05/13 03:42:54;;;;;;;3.53;1.90;;;13.90;64.60;;;;;;5096979;28;20197;-72
2021/05/13 03:45:21;;;;;;;1.70;1.27;;;13.90;64.70;;;;;;5104153;28;20216;-73
2021/05/13 03:47:48;;;;;;;2.67;1.30;;;13.90;64.90;;;;;;5114042;28;20286;-72
2021/05/13 03:50:15;;;;;;;3.13;1.37;;;13.90;64.90;;;;;;5101422;28;20232;-73
2021/05/13 03:52:41;;;;;;;1.90;1.53;;;14.00;64.80;;;;;;5109355;28;20680;-72
2021/05/13 03:55:11;;;;;;;1.33;1.20;;;14.00;64.60;;;;;;5108841;28;20228;-72
2021/05/13 03:57:40;;;;;;;1.80;1.37;;;14.00;64.40;;;;;;5105950;28;20200;-72
2021/05/13 04:00:11;;;;;;;3.07;1.30;;;14.00;64.50;;;;;;5102223;28;20199;-72
2021/05/13 04:02:37;;;;;;;1.53;1.30;;;14.00;64.30;;;;;;5100164;28;20252;-72
2021/05/13 04:05:05;;;;;;;2.50;1.57;;;14.00;64.40;;;;;;5102408;28;20296;-72
2021/05/13 04:07:34;;;;;;;1.37;1.00;;;14.00;64.40;;;;;;5104531;28;20532;-72
2021/05/13 04:10:04;;;;;;;4.97;1.37;;;14.00;64.40;;;;;;5103436;28;20297;-72
2021/05/13 04:12:30;;;;;;;2.40;1.30;;;14.00;64.30;;;;;;5102458;28;20228;-73
2021/05/13 04:14:59;;;;;;;1.20;1.10;;;14.10;64.30;;;;;;5103243;28;20310;-72
2021/05/13 04:17:25;;;;;;;3.10;1.37;;;14.10;64.30;;;;;;5098357;28;20223;-73
2021/05/13 04:19:52;;;;;;;4.83;1.37;;;14.10;64.40;;;;;;5097951;28;20630;-72
2021/05/13 04:22:18;;;;;;;1.37;1.00;;;14.10;64.30;;;;;;5094968;28;20201;-72
2021/05/13 04:24:44;;;;;;;1.87;1.60;;;14.10;64.20;;;;;;5095097;28;20201;-71
2021/05/13 04:27:11;;;;;;;2.93;1.47;;;14.00;64.30;;;;;;5107488;28;20352;-72
2021/05/13 04:29:37;;;;;;;3.07;1.40;;;14.10;64.70;;;;;;5107534;28;20205;-72
2021/05/13 04:32:05;;;;;;;3.47;1.80;;;14.10;64.70;;;;;;5101955;28;20255;-71
2021/05/13 04:34:31;;;;;;;2.27;1.10;;;14.10;64.60;;;;;;5096058;28;20281;-72
2021/05/13 04:36:57;;;;;;;2.83;1.53;;;14.10;64.40;;;;;;5101866;28;20201;-71
2021/05/13 04:39:24;;;;;;;3.40;1.30;;;14.00;64.60;;;;;;5101708;28;20326;-72
2021/05/13 04:41:51;;;;;;;4.13;1.20;;;14.10;64.80;;;;;;5102380;28;20279;-72
2021/05/13 04:44:17;;;;;;;2.73;1.37;;;14.10;64.40;;;;;;5110988;28;20250;-72
2021/05/13 04:46:44;;;;;;;1.50;1.30;;;14.10;64.70;;;;;;5106914;27;20204;-71
2021/05/13 04:49:18;;;;;;;5.00;1.50;;;14.10;64.80;;;;;;5094563;28;20208;-72
2021/05/13 04:51:47;;;;;;;2.37;1.50;;;14.20;64.60;;;;;;5095286;28;20211;-72
2021/05/13 04:54:17;;;;;;;3.37;1.60;;;14.30;64.40;;;;;;5093028;28;20307;-72
2021/05/13 04:56:43;;;;;;;2.40;1.67;;;14.40;64.20;;;;;;5106151;28;20212;-71
2021/05/13 04:59:10;;;;;;;1.60;1.37;;;14.40;64.00;;;;;;5107907;28;20224;-72
2021/05/13 05:01:37;;;;;;;1.23;1.07;;;14.40;63.70;;;;;;5098475;28;20247;-73
2021/05/13 05:04:04;;;;;;;2.97;1.30;;;14.40;63.70;;;;;;5103597;28;20327;-71
2021/05/13 05:06:32;;;;;;;2.70;1.30;;;14.50;63.80;;;;;;5097289;28;20223;-71
2021/05/13 05:08:58;;;;;;;4.00;1.53;;;14.50;63.80;;;;;;5097068;28;20200;-69
2021/05/13 05:11:25;;;;;;;1.50;1.23;;;14.50;63.80;;;;;;5104745;28;20717;-69
2021/05/13 05:13:51;;;;;;;1.87;1.67;;;14.50;63.70;;;;;;5096122;28;20284;-69
2021/05/13 05:16:17;;;;;;;4.70;1.30;;;14.50;63.70;;;;;;5094102;28;20205;-70
2021/05/13 05:18:44;;;;;;;2.57;1.27;;;14.50;63.70;;;;;;5102057;28;20209;-69
2021/05/13 05:21:11;;;;;;;4.07;1.50;;;14.50;63.90;;;;;;5092339;28;20209;-70
2021/05/13 05:23:38;;;;;;;3.50;1.20;;;14.60;64.20;;;;;;5095790;28;20211;-70
2021/05/13 05:26:06;;;;;;;4.17;1.60;;;14.60;64.20;;;;;;5101860;28;20720;-70
2021/05/13 05:28:32;;;;;;;4.50;1.40;;;14.70;64.20;;;;;;5094303;28;20209;-71
2021/05/13 05:30:59;;;;;;;1.70;1.47;;;14.80;64.10;;;;;;5090488;28;20225;-72
2021/05/13 05:33:26;;;;;;;3.77;1.30;;;14.80;64.00;;;;;;5096510;28;20279;-71
2021/05/13 05:35:52;;;;;;;2.63;1.50;;;14.90;64.10;;;;;;5100502;28;20291;-71
2021/05/13 05:38:20;;;;;;;1.97;1.67;;;15.00;64.10;;;;;;5107262;28;20196;-73
2021/05/13 05:40:47;;;;;;;4.30;1.50;;;15.00;63.30;;;;;;5110604;28;20288;-72
2021/05/13 05:43:14;;;;;;;1.37;1.20;;;15.10;63.40;;;;;;5097440;28;20274;-72
2021/05/13 05:45:41;;;;;;;3.97;1.40;;;15.20;63.10;;;;;;5102084;28;20267;-71
2021/05/13 05:48:08;;;;;;;4.70;1.60;;;15.20;63.50;;;;;;5094687;28;20287;-70
2021/05/13 05:50:36;;;;;;;2.73;1.40;;;15.20;62.90;;;;;;5092536;28;20293;-72
2021/05/13 05:53:03;;;;;;;1.90;1.20;;;15.10;62.60;;;;;;5094011;28;20573;-73
2021/05/13 05:55:32;;;;;;;3.90;1.40;;;15.00;63.00;;;;;;5095346;28;20231;-72
2021/05/13 05:58:00;;;;;;;5.40;1.80;;;15.10;63.60;;;;;;5099003;28;20207;-72
2021/05/13 06:00:27;;;;;;;4.13;1.60;;;15.10;63.60;;;;;;5097741;28;20200;-72
2021/05/13 06:02:54;;;;;;;3.10;1.50;;;15.30;63.70;;;;;;5104366;28;20709;-73
2021/05/13 06:05:20;;;;;;;8.17;1.40;;;15.30;63.80;;;;;;5112885;28;20294;-72
2021/05/13 06:07:47;;;;;;;2.07;1.53;;;15.40;62.90;;;;;;5090654;28;20632;-70
2021/05/13 06:10:15;;;;;;;1.60;1.50;;;15.40;62.90;;;;;;5099113;28;20295;-71
2021/05/13 06:12:43;;;;;;;3.13;1.37;;;15.50;62.30;;;;;;5104019;28;20231;-72
2021/05/13 06:15:14;;;;;;;1.87;1.30;;;15.50;63.40;;;;;;5095967;28;20712;-71
2021/05/13 06:17:41;;;;;;;1.90;1.10;;;15.60;62.80;;;;;;5094959;28;20206;-67
2021/05/13 06:20:16;;;;;;;1.67;1.57;;;15.70;63.00;;;;;;5094593;28;20214;-68
2021/05/13 06:22:42;;;;;;;4.33;1.80;;;15.90;63.20;;;;;;5095011;28;20236;-68
2021/05/13 06:25:10;;;;;;;2.70;1.50;;;15.90;62.60;;;;;;5095582;28;20200;-68
2021/05/13 06:27:36;;;;;;;3.67;1.60;;;16.00;62.90;;;;;;5097725;28;20770;-68
2021/05/13 06:30:05;;;;;;;2.90;1.50;;;16.20;62.90;;;;;;5096872;28;20238;-67
2021/05/13 06:32:32;;;;;;;1.50;1.40;;;16.30;62.30;;;;;;5102136;28;20222;-69
2021/05/13 06:34:58;;;;;;;5.97;1.43;;;16.30;63.30;;;;;;5093167;28;20211;-67
2021/05/13 06:37:25;;;;;;;2.23;1.27;;;16.50;63.30;;;;;;5112473;28;20240;-70
2021/05/13 06:39:51;;;;;;;3.63;1.30;;;16.70;62.70;;;;;;5090380;28;20292;-68
2021/05/13 06:42:18;;;;;;;2.57;1.20;;;16.80;61.90;;;;;;5094723;28;20296;-71
2021/05/13 06:44:44;;;;;;;4.20;1.33;;;16.90;60.50;;;;;;5105756;28;20215;-67
2021/05/13 06:47:12;;;;;;;1.53;1.23;;;17.00;60.00;;;;;;5096518;28;20208;-69
2021/05/13 06:49:40;;;;;;;3.27;1.10;;;17.00;60.00;;;;;;5095689;28;20688;-70
2021/05/13 06:52:07;;;;;;;4.23;1.00;;;17.00;60.60;;;;;;5094988;28;20292;-70
2021/05/13 06:54:34;;;;;;;6.20;1.20;;;17.10;59.10;;;;;;5098303;27;20612;-70
2021/05/13 06:57:01;;;;;;;1.40;0.90;;;17.10;59.20;;;;;;5090280;28;20208;-70
2021/05/13 06:59:27;;;;;;;3.07;1.03;;;17.10;58.70;;;;;;5111912;28;20207;-70
2021/05/13 07:01:55;;;;;;;7.00;1.77;;;17.10;59.10;;;;;;5098263;28;20278;-68
2021/05/13 07:04:21;;;;;;;5.80;0.97;;;17.20;59.00;;;;;;5094638;28;20196;-69
2021/05/13 07:06:49;;;;;;;3.73;1.23;;;17.30;57.70;;;;;;5093735;28;20322;-69
2021/05/13 07:09:16;;;;;;;2.80;1.13;;;17.40;57.70;;;;;;5096253;28;20669;-69
2021/05/13 07:11:43;;;;;;;2.33;1.20;;;17.40;57.70;;;;;;5098474;28;20249;-70
2021/05/13 07:14:09;;;;;;;4.50;1.30;;;17.50;57.20;;;;;;5101856;28;20723;-70
2021/05/13 07:16:38;;;;;;;1.97;1.23;;;17.60;57.70;;;;;;5098287;28;20244;-68
2021/05/13 07:19:05;;;;;;;1.30;1.00;;;17.70;56.60;;;;;;5096176;28;20204;-69
2021/05/13 07:21:32;;;;;;;3.13;1.20;;;17.80;57.20;;;;;;5095130;28;20292;-68
2021/05/13 07:24:00;;;;;;;3.30;1.30;;;17.90;56.90;;;;;;5097854;28;20204;-69
2021/05/13 07:26:27;;;;;;;7.05;1.30;;;18.10;57.00;;;;;;5100023;28;20614;-70
2021/05/13 07:28:54;;;;;;;2.30;1.10;;;18.20;56.10;;;;;;5115171;28;20621;-70
2021/05/13 07:31:21;;;;;;;4.68;1.52;;;18.30;56.20;;;;;;5118371;28;20207;-71
2021/05/13 07:33:48;;;;;;;4.20;1.20;;;18.50;56.60;;;;;;5112756;28;20224;-68
2021/05/13 07:36:15;;;;;;;2.63;1.23;;;18.60;54.80;;;;;;5097880;28;20291;-69
2021/05/13 07:38:42;;;;;;;3.00;1.05;;;18.70;54.60;;;;;;5101283;28;20269;-69
2021/05/13 07:41:10;;;;;;;2.42;1.23;;;18.80;54.80;;;;;;5101080;28;20205;-67
2021/05/13 07:43:37;;;;;;;2.90;1.40;;;18.90;54.90;;;;;;5101557;28;20816;-69
2021/05/13 07:46:04;;;;;;;7.75;2.55;;;18.90;53.80;;;;;;5117699;28;20231;-67
2021/05/13 07:48:32;;;;;;;5.82;1.23;;;19.00;54.70;;;;;;5106333;27;20641;-69
2021/05/13 07:50:59;;;;;;;2.47;1.85;;;19.00;53.90;;;;;;5103849;28;20216;-71
2021/05/13 07:53:26;;;;;;;4.60;1.13;;;19.10;53.40;;;;;;5103571;28;20274;-68
2021/05/13 07:55:55;;;;;;;1.77;1.13;;;19.10;53.30;;;;;;5108768;28;20238;-72
2021/05/13 07:58:22;;;;;;;3.75;1.17;;;19.10;53.20;;;;;;5096580;28;20209;-69
2021/05/13 08:00:50;;;;;;;1.90;0.90;;;19.10;53.90;;;;;;5096777;28;20213;-72
2021/05/13 08:03:17;;;;;;;1.75;1.13;;;19.20;54.00;;;;;;5100122;28;20542;-68
2021/05/13 08:05:44;;;;;;;1.90;1.02;;;19.40;52.30;;;;;;5095647;28;20212;-69
2021/05/13 08:08:10;;;;;;;1.65;1.08;;;19.50;52.50;;;;;;5095364;28;20203;-69
2021/05/13 08:10:37;;;;;;;2.67;1.00;;;19.60;52.60;;;;;;5092796;28;20296;-68
2021/05/13 08:13:03;;;;;;;2.70;1.38;;;19.80;52.50;;;;;;5110195;28;20226;-68
2021/05/13 08:15:31;;;;;;;1.63;1.23;;;20.00;52.20;;;;;;5102431;28;20200;-68
2021/05/13 08:17:57;;;;;;;1.25;1.08;;;20.10;51.90;;;;;;5087535;28;20215;-69
2021/05/13 08:20:23;;;;;;;1.25;0.70;;;20.30;50.90;;;;;;5095731;28;20232;-69
2021/05/13 08:22:50;;;;;;;4.60;1.08;;;20.40;50.50;;;;;;5094807;28;20736;-68
2021/05/13 08:25:19;;;;;;;2.47;1.42;;;20.60;49.70;;;;;;5094581;28;20208;-68
2021/05/13 08:27:48;;;;;;;2.65;0.88;;;20.70;48.90;;;;;;5095462;28;20242;-70
2021/05/13 08:30:15;;;;;;;2.42;1.30;;;20.80;48.40;;;;;;5094946;28;20201;-69
2021/05/13 08:32:42;;;;;;;1.80;1.10;;;20.90;47.60;;;;;;5094797;28;20257;-68
2021/05/13 08:35:10;;;;;;;1.45;1.10;;;20.80;46.70;;;;;;5092682;28;20261;-69
2021/05/13 08:37:36;;;;;;;2.08;1.10;;;20.80;47.40;;;;;;5084850;28;20237;-69
2021/05/13 08:40:04;;;;;;;4.97;1.10;;;20.80;47.30;;;;;;5093196;28;20201;-70
2021/05/13 08:42:31;;;;;;;1.85;1.00;;;20.80;47.40;;;;;;5104714;28;20200;-69
2021/05/13 08:44:57;;;;;;;2.30;1.00;;;20.80;46.50;;;;;;5098903;28;20787;-69
2021/05/13 08:47:24;;;;;;;0.95;0.75;;;20.70;46.30;;;;;;5095430;28;20319;-70
2021/05/13 08:49:51;;;;;;;3.33;1.05;;;20.60;46.40;;;;;;5087494;28;20718;-69
2021/05/13 08:52:19;;;;;;;1.17;0.90;;;20.60;46.80;;;;;;5096153;28;20235;-69
2021/05/13 08:54:53;;;;;;;1.42;0.80;;;20.60;47.10;;;;;;5104881;28;20311;-71
2021/05/13 08:57:20;;;;;;;3.55;1.02;;;20.70;47.60;;;;;;5104134;28;20200;-70
2021/05/13 08:59:47;;;;;;;0.95;0.80;;;20.80;46.40;;;;;;5099718;27;20214;-70
2021/05/13 09:02:15;;;;;;;4.15;0.90;;;20.90;45.70;;;;;;5108432;28;20295;-70
2021/05/13 09:04:45;;;;;;;3.00;0.80;;;20.90;45.50;;;;;;5110357;28;20597;-70
2021/05/13 09:07:15;;;;;;;1.88;0.88;;;20.90;44.60;;;;;;5102062;28;20196;-69
2021/05/13 09:09:56;;;;;;;2.85;1.02;;;21.00;44.50;;;;;;5105226;28;20204;-70
2021/05/13 09:12:23;;;;;;;3.03;1.02;;;21.30;44.70;;;;;;5104360;28;20204;-72
2021/05/13 09:15:00;;;;;;;1.80;0.90;;;21.30;43.50;;;;;;5101616;28;21367;-70
2021/05/13 09:17:28;;;;;;;1.33;0.68;;;21.40;43.50;;;;;;5098598;28;20200;-68
2021/05/13 09:19:55;;;;;;;2.20;0.95;;;21.50;44.10;;;;;;5102410;28;20342;-70
2021/05/13 09:22:26;;;;;;;1.00;0.73;;;21.60;43.50;;;;;;5102113;28;20219;-69
2021/05/13 09:24:55;;;;;;;1.50;0.80;;;21.60;43.00;;;;;;5107653;28;20287;-70
2021/05/13 09:27:27;;;;;;;1.50;0.65;;;21.60;42.20;;;;;;5093032;28;20321;-71
2021/05/13 09:30:14;;;;;;;2.15;0.80;;;21.60;42.00;;;;;;5104723;28;20239;-69
2021/05/13 09:32:42;;;;;;;2.65;0.80;;;21.80;42.50;;;;;;5099950;28;20597;-70
2021/05/13 09:35:11;;;;;;;1.98;0.63;;;22.10;42.50;;;;;;5097482;28;20223;-68
2021/05/13 09:37:40;;;;;;;5.05;0.90;;;22.30;41.90;;;;;;5100012;28;20213;-68
2021/05/13 09:40:08;;;;;;;0.80;0.80;;;22.40;42.50;;;;;;5092629;28;20201;-68
2021/05/13 09:42:35;;;;;;;0.93;0.80;;;22.70;41.50;;;;;;5113034;28;20317;-70
2021/05/13 09:45:01;;;;;;;0.77;0.77;;;22.80;41.50;;;;;;5102982;28;20196;-69
2021/05/13 09:47:28;;;;;;;2.42;0.93;;;22.90;41.00;;;;;;5094733;28;20238;-70
2021/05/13 09:49:57;;;;;;;1.63;0.95;;;22.90;41.70;;;;;;5103566;28;20204;-69
2021/05/13 09:52:56;;;;;;;2.15;0.90;;;22.90;41.80;;;;;;5100357;28;20303;-69
2021/05/13 09:55:27;;;;;;;0.90;0.60;;;23.00;42.40;;;;;;5094565;28;20215;-69
2021/05/13 09:58:04;;;;;;;1.15;0.85;;;23.00;42.30;;;;;;5091342;28;20629;-68
2021/05/13 10:00:36;;;;;;;1.80;0.80;;;23.10;40.70;;;;;;5091281;28;20232;-71
2021/05/13 10:03:06;;;;;;;1.00;0.90;;;23.00;40.60;;;;;;5093658;28;20201;-69
2021/05/13 10:05:33;;;;;;;1.65;0.90;;;22.90;41.30;;;;;;5099273;28;20208;-69
2021/05/13 10:08:00;;;;;;;1.33;0.90;;;23.10;41.40;;;;;;5100215;28;20212;-68
2021/05/13 10:10:27;;;;;;;1.67;0.88;;;23.20;41.30;;;;;;5090612;28;20291;-69
2021/05/13 10:12:57;;;;;;;1.85;0.95;;;23.20;41.30;;;;;;5096240;28;20208;-68
2021/05/13 10:15:25;;;;;;;2.70;0.70;;;23.20;40.60;;;;;;5104522;28;20699;-66
2021/05/13 10:17:56;;;;;;;4.35;0.80;;;23.10;39.40;;;;;;5104294;28;20239;-69
2021/05/13 10:20:24;;;;;;;2.78;0.70;;;23.10;39.80;;;;;;5104780;28;20202;-68
2021/05/13 10:22:50;;;;;;;0.88;0.80;;;23.20;40.20;;;;;;5092943;28;20205;-68
2021/05/13 10:25:25;;;;;;;2.45;0.85;;;23.30;40.90;;;;;;5107550;28;20299;-69
2021/05/13 10:27:55;;;;;;;1.65;0.98;;;23.30;40.80;;;;;;5095022;28;20255;-69
2021/05/13 10:30:26;;;;;;;2.10;0.77;;;23.30;41.00;;;;;;5092612;28;20291;-68
2021/05/13 10:33:11;;;;;;;0.98;0.95;;;23.50;41.70;;;;;;5098271;28;20231;-69
2021/05/13 10:35:38;;;;;;;3.70;0.93;;;23.70;41.20;;;;;;5103137;28;20211;-68
2021/05/13 10:38:09;;;;;;;3.00;1.13;;;23.70;40.40;;;;;;5086810;28;20616;-67
2021/05/13 10:40:48;;;;;;;1.30;0.80;;;23.50;40.80;;;;;;5104751;28;20298;-68
2021/05/13 10:43:16;;;;;;;1.08;0.70;;;23.60;41.30;;;;;;5096785;28;20200;-67
2021/05/13 10:45:44;;;;;;;4.35;0.95;;;23.80;41.20;;;;;;5097346;28;20287;-69
2021/05/13 10:48:18;;;;;;;1.15;0.80;;;24.00;40.90;;;;;;5092605;28;20204;-67
2021/05/13 10:50:50;;;;;;;2.92;0.85;;;24.00;41.20;;;;;;5091448;28;20665;-67
2021/05/13 10:53:43;;;;;;;5.20;1.00;;;23.90;41.00;;;;;;5092466;28;20303;-72
2021/05/13 10:56:23;;;;;;;4.60;1.05;;;23.80;41.00;;;;;;5086437;28;20209;-69
2021/05/13 10:59:13;;;;;;;3.50;0.90;;;23.80;41.30;;;;;;5096568;28;20253;-69
2021/05/13 11:01:43;;;;;;;3.15;1.30;;;23.70;41.40;;;;;;5089230;28;20204;-66
2021/05/13 11:04:40;;;;;;;1.73;1.08;;;23.70;41.80;;;;;;5095359;28;20200;-68
2021/05/13 11:07:24;;;;;;;4.75;1.23;;;23.80;42.90;;;;;;5090672;28;20201;-70
2021/05/13 11:09:55;;;;;;;2.78;1.13;;;24.00;41.80;;;;;;5089301;28;20212;-69
2021/05/13 11:12:23;;;;;;;3.88;0.93;;;24.30;42.00;;;;;;5105804;28;20204;-68
2021/05/13 11:15:11;;;;;;;3.00;1.00;;;24.60;40.80;;;;;;5092621;28;20224;-65
2021/05/13 11:18:08;;;;;;;2.33;0.93;;;24.60;41.10;;;;;;5095831;28;20290;-70
2021/05/13 11:20:39;;;;;;;1.13;0.90;;;24.70;41.30;;;;;;5090517;28;20204;-72
2021/05/13 11:23:08;;;;;;;4.20;1.20;;;24.90;40.90;;;;;;5092168;28;20298;-69
2021/05/13 11:25:40;;;;;;;1.48;1.15;;;24.90;40.80;;;;;;5106846;28;20208;-69
2021/05/13 11:28:18;;;;;;;2.90;1.13;;;24.80;40.90;;;;;;5099095;28;20667;-71
2021/05/13 11:30:45;;;;;;;4.75;1.05;;;24.70;40.70;;;;;;5099665;28;20204;-70
2021/05/13 11:33:11;;;;;;;2.65;1.33;;;24.60;42.20;;;;;;5097457;28;20232;-69
2021/05/13 11:35:38;;;;;;;6.13;0.95;;;24.60;41.00;;;;;;5094491;28;20214;-65
2021/05/13 11:38:18;;;;;;;1.75;0.88;;;24.50;41.40;;;;;;5087225;28;20629;-67
2021/05/13 11:40:45;;;;;;;4.03;1.00;;;24.60;40.60;;;;;;5092106;28;20228;-67
2021/05/13 11:43:17;;;;;;;1.00;0.90;;;24.60;41.10;;;;;;5099336;28;20201;-70
2021/05/13 11:45:44;;;;;;;3.22;0.90;;;24.60;40.60;;;;;;5093396;28;20295;-70
2021/05/13 11:48:34;;;;;;;3.17;1.17;;;24.50;39.80;;;;;;5096323;28;20294;-68
2021/05/13 11:51:04;;;;;;;2.10;0.90;;;24.30;40.40;;;;;;5090621;28;20283;-70
2021/05/13 11:53:30;;;;;;;2.25;0.90;;;24.30;41.10;;;;;;5088351;28;20229;-70
2021/05/13 11:55:57;;;;;;;4.57;0.90;;;24.40;41.00;;;;;;5097163;28;20200;-69
2021/05/13 11:58:52;;;;;;;1.45;1.10;;;24.50;40.80;;;;;;5097441;28;20713;-68
2021/05/13 12:01:23;;;;;;;8.15;1.20;;;24.40;41.20;;;;;;5095098;28;20200;-69
2021/05/13 12:03:57;;;;;;;3.28;1.15;;;24.50;40.60;;;;;;5092668;28;20201;-70
2021/05/13 12:06:24;;;;;;;1.02;0.93;;;24.40;40.50;;;;;;5091669;28;20201;-69
2021/05/13 12:08:51;;;;;;;0.98;0.98;;;24.40;40.50;;;;;;5098057;28;20204;-68
2021/05/13 12:11:20;;;;;;;1.38;0.85;;;24.40;40.50;;;;;;5102607;28;20210;-68
2021/05/13 12:13:47;;;;;;;5.00;1.67;;;24.60;40.90;;;;;;5110013;28;20287;-68
2021/05/13 12:16:14;;;;;;;1.33;0.90;;;24.80;40.50;;;;;;5100315;28;20232;-68
2021/05/13 12:18:47;;;;;;;2.53;0.93;;;25.00;39.60;;;;;;5108230;28;20595;-66
2021/05/13 12:21:16;;;;;;;4.07;1.02;;;25.00;38.20;;;;;;5108427;28;20707;-68
2021/05/13 12:23:44;;;;;;;0.82;0.70;;;25.00;38.60;;;;;;5109799;28;20206;-69
2021/05/13 12:26:12;;;;;;;5.93;1.27;;;25.00;37.80;;;;;;5115571;28;20210;-68
2021/05/13 12:28:39;;;;;;;2.17;0.90;;;24.90;38.60;;;;;;5095084;28;20209;-68
2021/05/13 12:31:07;;;;;;;1.15;0.80;;;24.80;38.00;;;;;;5109150;28;20204;-66
2021/05/13 12:33:35;;;;;;;6.10;0.90;;;24.70;38.20;;;;;;5093719;28;20329;-68
2021/05/13 12:36:03;;;;;;;2.45;0.82;;;24.60;38.00;;;;;;5099059;28;20224;-68
2021/05/13 12:38:30;;;;;;;2.40;0.95;;;24.50;37.70;;;;;;5094136;28;20713;-68
2021/05/13 12:41:08;;;;;;;3.00;1.05;;;24.60;38.80;;;;;;5093855;28;20205;-68
2021/05/13 12:43:35;;;;;;;2.35;0.90;;;24.80;38.60;;;;;;5100205;28;20657;-68
2021/05/13 12:46:14;;;;;;;1.17;0.90;;;25.00;38.20;;;;;;5097602;28;20665;-68
2021/05/13 12:48:40;;;;;;;1.60;1.13;;;25.10;37.80;;;;;;5093761;28;20641;-69
2021/05/13 12:51:07;;;;;;;2.95;0.80;;;25.10;38.40;;;;;;5096974;28;20294;-68
2021/05/13 12:53:34;;;;;;;4.32;1.00;;;25.00;38.00;;;;;;5093914;28;20231;-67
2021/05/13 12:56:01;;;;;;;1.98;0.90;;;24.90;38.60;;;;;;5098005;28;20273;-69
2021/05/13 12:58:28;;;;;;;4.25;1.15;;;24.80;38.50;;;;;;5095158;28;20212;-69